Time;durP1;ratioP1;P1;durP2;ratioP2;P2;SDS_P1;SDS_P2;PMS_P1;PMS_P2;Temp;Humidity;BMP_temperature;BMP_pressure;BME280_temperature;BME280_humidity;BME280_pressure;Samples;Min_cycle;Max_cycle;Signal;HPM_P1;HPM_P2
2022/06/08 00:01:21;;;;;;;4.15;2.30;;;11.70;99.90;;;;;;5021750;28;20062;-69
2022/06/08 00:03:52;;;;;;;4.63;2.13;;;11.80;99.90;;;;;;5021551;28;20071;-68
2022/06/08 00:06:19;;;;;;;7.43;3.17;;;11.70;99.90;;;;;;5022040;28;20025;-68
2022/06/08 00:08:45;;;;;;;9.00;2.47;;;11.70;99.90;;;;;;5021756;28;20026;-70
2022/06/08 00:11:12;;;;;;;7.57;3.40;;;11.70;99.90;;;;;;5022143;28;20087;-68
2022/06/08 00:13:38;;;;;;;5.28;3.00;;;11.60;99.90;;;;;;5022405;28;20022;-68
2022/06/08 00:16:05;;;;;;;7.95;3.22;;;11.60;99.90;;;;;;5021371;28;20101;-67
2022/06/08 00:18:30;;;;;;;5.38;3.22;;;11.60;99.90;;;;;;5021564;28;20022;-68
2022/06/08 00:20:56;;;;;;;6.82;3.15;;;11.60;99.90;;;;;;5021903;28;20091;-67
2022/06/08 00:23:22;;;;;;;5.80;3.10;;;11.60;99.90;;;;;;5021734;28;21172;-68
2022/06/08 00:25:48;;;;;;;6.43;3.78;;;11.50;99.90;;;;;;5021821;28;20081;-68
2022/06/08 00:28:14;;;;;;;5.40;2.95;;;11.50;99.90;;;;;;5021922;28;20390;-68
2022/06/08 00:30:42;;;;;;;5.10;2.83;;;11.50;99.90;;;;;;5022881;28;20030;-69
2022/06/08 00:33:09;;;;;;;6.47;3.53;;;11.50;99.90;;;;;;5024931;28;20386;-68
2022/06/08 00:35:35;;;;;;;5.00;3.17;;;11.50;99.90;;;;;;5025519;28;20030;-68
2022/06/08 00:38:00;;;;;;;6.05;3.20;;;11.50;99.90;;;;;;5025564;28;20033;-68
2022/06/08 00:40:37;;;;;;;7.90;3.47;;;11.40;99.90;;;;;;5025555;28;20108;-68
2022/06/08 00:43:03;;;;;;;5.22;3.00;;;11.40;99.90;;;;;;5024815;28;20037;-69
2022/06/08 00:45:29;;;;;;;7.00;3.42;;;11.40;99.90;;;;;;5025158;28;20041;-68
2022/06/08 00:47:59;;;;;;;10.32;3.20;;;11.30;99.90;;;;;;5024820;28;20049;-69
2022/06/08 00:50:30;;;;;;;7.72;3.25;;;11.30;99.90;;;;;;5024816;28;20025;-69
2022/06/08 00:52:58;;;;;;;6.13;3.22;;;11.30;99.90;;;;;;5025161;28;20455;-68
2022/06/08 00:55:27;;;;;;;5.05;3.00;;;11.30;99.90;;;;;;5024753;28;20049;-69
2022/06/08 00:58:01;;;;;;;7.80;3.38;;;11.20;99.90;;;;;;5024310;28;20030;-68
2022/06/08 01:00:30;;;;;;;6.10;2.70;;;11.20;99.90;;;;;;5024364;28;20057;-68
2022/06/08 01:02:57;;;;;;;6.03;3.42;;;11.20;99.90;;;;;;5024701;28;20048;-68
2022/06/08 01:05:42;;;;;;;5.53;3.25;;;11.20;99.90;;;;;;5024730;28;20030;-69
2022/06/08 01:08:28;;;;;;;5.75;3.63;;;11.10;99.90;;;;;;5024388;28;20048;-68
2022/06/08 01:10:57;;;;;;;8.75;4.03;;;11.10;99.90;;;;;;5024951;28;20026;-69
2022/06/08 01:13:23;;;;;;;5.82;3.00;;;11.10;99.90;;;;;;5007136;28;20056;-69
2022/06/08 01:15:50;;;;;;;5.88;3.83;;;11.00;99.90;;;;;;5024240;28;20032;-69
2022/06/08 01:18:16;;;;;;;4.63;2.88;;;11.10;99.90;;;;;;5024475;28;20049;-69
2022/06/08 01:20:46;;;;;;;8.18;4.13;;;11.10;99.90;;;;;;5024376;28;20030;-68
2022/06/08 01:23:12;;;;;;;8.30;3.40;;;11.00;99.90;;;;;;5023895;28;20042;-67
2022/06/08 01:25:50;;;;;;;6.35;3.95;;;11.00;99.90;;;;;;5024648;28;20087;-68
2022/06/08 01:28:43;;;;;;;5.88;3.17;;;11.00;99.90;;;;;;5024365;28;20049;-68
2022/06/08 01:31:23;;;;;;;5.68;3.17;;;10.90;99.90;;;;;;5024720;28;20116;-69
2022/06/08 01:34:00;;;;;;;8.45;3.80;;;11.00;99.90;;;;;;5024420;28;20057;-69
2022/06/08 01:36:26;;;;;;;6.28;3.85;;;11.00;99.90;;;;;;5024250;28;20029;-68
2022/06/08 01:39:16;;;;;;;7.50;4.05;;;10.90;99.90;;;;;;5024086;28;20360;-68
2022/06/08 01:42:20;;;;;;;3.00;2.40;;;11.00;99.90;;;;;;5024143;28;20026;-69
2022/06/08 01:48:12;;;;;;;6.65;3.55;;;11.00;99.90;;;;;;5024216;28;20088;-68
2022/06/08 01:51:14;;;;;;;9.35;5.07;;;11.00;99.90;;;;;;5023963;28;20684;-69
2022/06/08 01:53:49;;;;;;;6.75;4.03;;;10.90;99.90;;;;;;5006530;28;20049;-68
2022/06/08 01:56:18;;;;;;;6.93;3.88;;;11.00;99.90;;;;;;5023512;28;20022;-70
2022/06/08 01:59:09;;;;;;;9.80;4.85;;;11.00;99.90;;;;;;5023644;28;20029;-69
2022/06/08 02:02:09;;;;;;;7.00;4.45;;;11.00;99.90;;;;;;5023726;28;20014;-68
2022/06/08 02:04:48;;;;;;;8.90;4.78;;;11.10;99.90;;;;;;5023458;28;20053;-70
2022/06/08 02:07:46;;;;;;;8.20;4.47;;;11.10;99.90;;;;;;5023415;28;20049;-69
2022/06/08 02:10:28;;;;;;;6.55;3.85;;;11.10;99.90;;;;;;5023733;28;20032;-69
2022/06/08 02:13:00;;;;;;;7.28;3.50;;;11.20;99.90;;;;;;5023801;28;20026;-69
2022/06/08 02:15:34;;;;;;;11.70;4.57;;;11.20;99.90;;;;;;5023296;28;20049;-68
2022/06/08 02:18:07;;;;;;;6.75;3.35;;;11.20;99.90;;;;;;5022890;28;20105;-69
2022/06/08 02:20:51;;;;;;;6.73;3.47;;;11.20;99.90;;;;;;5023093;28;20030;-68
2022/06/08 02:23:30;;;;;;;7.47;3.95;;;11.20;99.90;;;;;;5023080;28;20041;-70
2022/06/08 02:26:01;;;;;;;7.25;4.10;;;11.20;99.90;;;;;;5023211;28;20427;-69
2022/06/08 02:28:41;;;;;;;6.85;4.60;;;11.30;99.90;;;;;;5023215;28;20025;-69
2022/06/08 02:31:19;;;;;;;8.07;4.00;;;11.30;99.90;;;;;;5023315;28;20030;-69
2022/06/08 02:36:49;;;;;;;9.05;3.95;;;11.30;99.90;;;;;;5023054;28;20052;-69
2022/06/08 02:39:18;;;;;;;8.48;4.10;;;11.30;99.90;;;;;;5023039;28;20053;-71
2022/06/08 02:41:49;;;;;;;7.45;3.95;;;11.30;99.90;;;;;;5022924;28;20044;-70
2022/06/08 02:44:27;;;;;;;6.82;4.07;;;11.30;99.90;;;;;;5022987;28;20034;-69
2022/06/08 02:47:05;;;;;;;8.23;4.15;;;11.40;99.90;;;;;;5023040;28;20246;-68
2022/06/08 02:49:36;;;;;;;8.93;4.55;;;11.40;99.90;;;;;;5022903;28;20044;-69
2022/06/08 02:52:11;;;;;;;11.95;5.82;;;11.40;99.90;;;;;;5022458;28;20037;-68
2022/06/08 02:54:36;;;;;;;6.80;4.43;;;11.40;99.90;;;;;;5022255;28;20033;-69
2022/06/08 02:57:20;;;;;;;13.00;4.93;;;11.50;99.90;;;;;;5023024;28;20022;-68
2022/06/08 03:00:07;;;;;;;11.57;5.32;;;11.50;99.90;;;;;;5022960;28;20649;-69
2022/06/08 03:02:47;;;;;;;7.00;4.25;;;11.50;99.90;;;;;;5022827;28;20038;-70
2022/06/08 03:05:22;;;;;;;11.27;4.75;;;11.60;99.90;;;;;;5022904;28;20065;-69
2022/06/08 03:07:58;;;;;;;6.20;3.42;;;11.60;99.90;;;;;;5022379;28;20033;-68
2022/06/08 03:10:26;;;;;;;14.68;4.32;;;11.60;99.90;;;;;;5022403;28;20454;-70
2022/06/08 03:13:00;;;;;;;8.38;4.88;;;11.70;99.90;;;;;;5022170;28;20022;-69
2022/06/08 03:15:26;;;;;;;13.82;4.75;;;11.70;99.90;;;;;;5022049;28;20014;-69
2022/06/08 03:17:51;;;;;;;5.50;4.15;;;11.70;99.90;;;;;;5021104;28;20125;-70
2022/06/08 03:20:20;;;;;;;7.97;4.43;;;11.70;99.90;;;;;;5022352;28;20030;-69
2022/06/08 03:22:46;;;;;;;10.75;5.15;;;11.70;99.90;;;;;;5022634;28;20037;-68
2022/06/08 03:25:14;;;;;;;8.82;5.03;;;11.70;99.90;;;;;;5021955;28;20494;-69
2022/06/08 03:27:42;;;;;;;10.60;5.38;;;11.70;99.90;;;;;;5022562;28;20022;-69
2022/06/08 03:30:11;;;;;;;10.48;4.88;;;11.70;99.90;;;;;;5022300;28;20482;-70
2022/06/08 03:32:37;;;;;;;10.10;5.30;;;11.70;99.90;;;;;;5021577;28;20026;-70
2022/06/08 03:35:03;;;;;;;6.30;3.83;;;11.60;99.90;;;;;;5022270;28;20030;-69
2022/06/08 03:37:29;;;;;;;6.38;3.30;;;11.60;99.90;;;;;;5022018;28;20076;-69
2022/06/08 03:39:54;;;;;;;5.05;3.40;;;11.50;99.90;;;;;;5022629;28;20026;-69
2022/06/08 03:42:20;;;;;;;12.32;3.10;;;11.40;99.90;;;;;;5022357;28;20501;-69
2022/06/08 03:44:45;;;;;;;3.70;2.42;;;11.30;99.90;;;;;;5021782;28;20030;-70
2022/06/08 03:47:16;;;;;;;4.13;2.83;;;11.30;99.90;;;;;;5022429;28;20080;-70
2022/06/08 03:49:42;;;;;;;5.10;3.55;;;11.20;99.90;;;;;;5021864;28;20026;-71
2022/06/08 03:52:13;;;;;;;10.93;3.95;;;11.20;99.90;;;;;;5004245;28;20030;-70
2022/06/08 03:54:44;;;;;;;5.53;3.35;;;11.10;99.90;;;;;;5004500;28;20348;-71
2022/06/08 03:57:11;;;;;;;6.63;3.85;;;11.10;99.90;;;;;;5022399;28;20136;-70
2022/06/08 03:59:40;;;;;;;6.15;3.38;;;11.10;99.90;;;;;;5021884;28;20060;-70
2022/06/08 04:02:08;;;;;;;8.90;4.03;;;11.20;99.90;;;;;;5021703;28;20069;-68
2022/06/08 04:04:34;;;;;;;10.40;4.07;;;11.10;99.90;;;;;;5004303;28;20046;-69
2022/06/08 04:06:59;;;;;;;5.70;3.95;;;11.20;99.90;;;;;;5024812;28;20033;-69
2022/06/08 04:09:25;;;;;;;8.20;4.72;;;11.20;99.90;;;;;;5007375;28;20090;-69
2022/06/08 04:11:56;;;;;;;8.35;4.55;;;11.20;99.90;;;;;;5025792;28;20053;-69
2022/06/08 04:14:22;;;;;;;6.45;4.40;;;11.30;99.90;;;;;;5025972;28;20080;-70
2022/06/08 04:16:48;;;;;;;9.95;4.97;;;11.30;99.90;;;;;;5024730;28;20050;-70
2022/06/08 04:19:15;;;;;;;8.90;4.78;;;11.30;99.90;;;;;;5025294;28;20018;-70
2022/06/08 04:21:42;;;;;;;10.90;4.68;;;11.30;99.90;;;;;;5025642;28;20037;-72
2022/06/08 04:24:10;;;;;;;18.08;6.72;;;11.30;99.90;;;;;;5026002;28;20168;-70
2022/06/08 04:26:36;;;;;;;16.08;7.60;;;11.30;99.90;;;;;;5025240;28;20018;-69
2022/06/08 04:29:03;;;;;;;13.18;7.63;;;11.30;99.90;;;;;;5025563;28;20092;-69
2022/06/08 04:31:32;;;;;;;13.60;7.35;;;11.30;99.90;;;;;;5007574;28;21006;-69
2022/06/08 04:33:58;;;;;;;15.10;6.35;;;11.40;99.90;;;;;;5025539;28;20037;-69
2022/06/08 04:36:24;;;;;;;13.70;6.03;;;11.40;99.90;;;;;;5025637;28;20029;-69
2022/06/08 04:38:50;;;;;;;12.07;6.25;;;11.50;99.90;;;;;;5025503;28;20667;-69
2022/06/08 04:41:17;;;;;;;12.48;5.97;;;11.50;99.90;;;;;;5025366;28;20040;-69
2022/06/08 04:43:42;;;;;;;14.52;7.07;;;11.50;99.90;;;;;;5024980;28;20044;-71
2022/06/08 04:46:08;;;;;;;11.98;7.40;;;11.60;99.90;;;;;;5025553;28;20046;-70
2022/06/08 04:48:34;;;;;;;14.23;6.65;;;11.70;99.90;;;;;;5025258;28;20395;-70
2022/06/08 04:51:01;;;;;;;13.73;6.35;;;11.70;99.90;;;;;;5025140;28;20119;-70
2022/06/08 04:53:27;;;;;;;11.10;6.15;;;11.70;99.90;;;;;;5024444;28;20097;-72
2022/06/08 04:55:52;;;;;;;12.00;5.85;;;11.70;99.90;;;;;;5006819;28;20044;-69
2022/06/08 04:58:20;;;;;;;11.90;7.25;;;11.80;99.90;;;;;;5024401;28;20058;-71
2022/06/08 05:00:46;;;;;;;11.75;6.55;;;11.80;99.90;;;;;;5024407;28;20034;-69
2022/06/08 05:03:12;;;;;;;14.60;7.30;;;11.80;99.90;;;;;;5024933;28;20050;-69
2022/06/08 05:05:40;;;;;;;18.63;6.60;;;11.90;99.90;;;;;;5025515;28;20045;-70
2022/06/08 05:08:08;;;;;;;13.65;7.00;;;11.90;99.90;;;;;;5007289;28;20037;-71
2022/06/08 05:10:35;;;;;;;14.32;7.43;;;11.90;99.90;;;;;;5021237;28;20502;-71
2022/06/08 05:13:01;;;;;;;11.57;6.07;;;11.90;99.90;;;;;;5024385;28;20033;-72
2022/06/08 05:15:32;;;;;;;11.55;5.97;;;11.90;99.90;;;;;;5024406;28;20018;-71
2022/06/08 05:17:58;;;;;;;15.13;6.47;;;11.90;99.90;;;;;;5022405;28;20121;-71
2022/06/08 05:20:25;;;;;;;7.75;4.95;;;12.00;99.90;;;;;;5021365;28;20033;-71
2022/06/08 05:22:51;;;;;;;9.55;5.32;;;12.00;99.90;;;;;;5024254;28;20108;-71
2022/06/08 05:25:33;;;;;;;8.88;5.47;;;12.10;99.90;;;;;;5023259;28;20026;-71
2022/06/08 05:28:00;;;;;;;8.32;4.93;;;12.10;99.90;;;;;;5024114;28;20037;-70
2022/06/08 05:30:26;;;;;;;16.17;6.18;;;12.20;99.90;;;;;;5019571;28;20030;-71
2022/06/08 05:32:53;;;;;;;9.85;5.35;;;12.20;99.90;;;;;;5022820;28;20026;-71
2022/06/08 05:35:19;;;;;;;10.63;5.70;;;12.30;99.90;;;;;;5024328;28;20036;-72
2022/06/08 05:37:47;;;;;;;8.73;5.07;;;12.30;99.90;;;;;;5021481;28;20022;-71
2022/06/08 05:40:14;;;;;;;14.30;5.88;;;12.30;99.90;;;;;;5022350;28;20072;-71
2022/06/08 05:42:42;;;;;;;10.68;5.00;;;12.30;99.90;;;;;;5020089;28;20089;-71
2022/06/08 05:45:13;;;;;;;16.25;5.47;;;12.50;99.90;;;;;;5023029;28;20034;-71
2022/06/08 05:47:39;;;;;;;10.93;4.88;;;12.60;99.90;;;;;;5024459;28;20052;-72
2022/06/08 05:50:05;;;;;;;10.90;5.38;;;12.70;99.90;;;;;;5023832;28;20034;-70
2022/06/08 05:52:30;;;;;;;9.00;5.18;;;12.80;99.90;;;;;;5023678;28;20030;-71
2022/06/08 05:54:56;;;;;;;16.05;5.78;;;12.90;99.90;;;;;;5023651;28;20030;-71
2022/06/08 05:57:21;;;;;;;9.07;5.47;;;13.00;99.90;;;;;;5023369;28;20032;-71
2022/06/08 05:59:49;;;;;;;10.82;5.60;;;13.00;99.90;;;;;;5019719;28;20036;-71
2022/06/08 06:02:16;;;;;;;16.00;5.13;;;13.10;99.90;;;;;;5023872;28;20014;-71
2022/06/08 06:04:42;;;;;;;9.20;5.25;;;13.20;99.90;;;;;;5006190;28;21372;-71
2022/06/08 06:07:10;;;;;;;13.18;5.68;;;13.20;99.90;;;;;;5020999;28;20037;-72
2022/06/08 06:09:36;;;;;;;11.25;5.50;;;13.20;99.90;;;;;;5023469;28;20441;-70
2022/06/08 06:12:01;;;;;;;12.80;5.72;;;13.30;99.90;;;;;;5021904;28;20054;-71
2022/06/08 06:14:27;;;;;;;13.32;5.80;;;13.40;99.90;;;;;;5023165;28;20032;-71
2022/06/08 06:16:53;;;;;;;9.57;5.85;;;13.50;99.90;;;;;;5021506;28;20100;-71
2022/06/08 06:19:18;;;;;;;13.15;6.43;;;13.50;99.90;;;;;;5022961;28;20093;-72
2022/06/08 06:21:44;;;;;;;11.27;6.47;;;13.50;99.90;;;;;;5023588;28;20033;-71
2022/06/08 06:24:09;;;;;;;21.05;6.70;;;13.60;99.90;;;;;;5005281;28;20049;-71
2022/06/08 06:26:35;;;;;;;8.57;5.65;;;13.60;99.90;;;;;;5023228;28;20026;-71
2022/06/08 06:29:01;;;;;;;16.20;6.65;;;13.70;99.90;;;;;;5022157;28;20053;-70
2022/06/08 06:31:29;;;;;;;10.77;6.35;;;13.80;99.90;;;;;;5021631;28;20029;-71
2022/06/08 06:33:55;;;;;;;10.25;6.18;;;13.80;99.90;;;;;;5021996;28;20030;-70
2022/06/08 06:36:20;;;;;;;10.60;6.40;;;13.90;99.90;;;;;;5023397;28;20094;-70
2022/06/08 06:38:50;;;;;;;13.48;6.65;;;14.00;99.90;;;;;;5023415;28;20505;-70
2022/06/08 06:41:16;;;;;;;14.23;7.00;;;14.00;99.90;;;;;;5023176;28;20021;-71
2022/06/08 06:43:42;;;;;;;14.02;6.97;;;14.00;99.90;;;;;;5022140;28;20089;-71
2022/06/08 06:46:13;;;;;;;16.90;7.60;;;14.10;99.90;;;;;;5023042;28;20065;-70
2022/06/08 06:48:40;;;;;;;17.88;7.60;;;14.10;99.90;;;;;;5019170;28;20056;-70
2022/06/08 06:51:07;;;;;;;18.85;6.00;;;14.20;99.90;;;;;;5019651;28;20422;-71
2022/06/08 06:53:34;;;;;;;13.57;7.20;;;14.30;99.90;;;;;;5021065;28;20091;-70
2022/06/08 06:55:59;;;;;;;10.18;6.00;;;14.40;99.90;;;;;;5020909;28;20448;-71
2022/06/08 06:58:25;;;;;;;14.27;7.00;;;14.50;99.90;;;;;;5020049;28;20029;-70
2022/06/08 07:00:51;;;;;;;16.30;7.43;;;14.60;99.90;;;;;;5021746;28;20037;-71
2022/06/08 07:03:17;;;;;;;15.55;7.50;;;14.80;99.90;;;;;;5022278;28;20038;-71
2022/06/08 07:05:43;;;;;;;12.48;6.95;;;14.60;99.90;;;;;;5022533;28;20026;-70
2022/06/08 07:08:08;;;;;;;16.35;6.30;;;14.70;99.90;;;;;;5022500;28;20049;-70
2022/06/08 07:10:36;;;;;;;12.82;6.60;;;14.70;99.90;;;;;;5022923;28;20095;-70
2022/06/08 07:13:02;;;;;;;11.02;6.53;;;14.70;99.90;;;;;;5022625;28;20025;-72
2022/06/08 07:15:28;;;;;;;14.25;6.55;;;14.90;99.90;;;;;;5022985;28;20036;-70
2022/06/08 07:17:54;;;;;;;25.15;6.85;;;14.90;99.90;;;;;;5021092;28;20042;-70
2022/06/08 07:20:21;;;;;;;13.75;7.45;;;15.00;99.90;;;;;;5022291;28;20030;-71
2022/06/08 07:22:48;;;;;;;15.32;6.90;;;15.20;99.90;;;;;;5021854;28;20047;-71
2022/06/08 07:25:15;;;;;;;10.93;5.65;;;15.20;99.90;;;;;;5022532;28;20033;-71
2022/06/08 07:27:41;;;;;;;15.38;7.63;;;15.40;99.90;;;;;;5022721;28;20026;-71
2022/06/08 07:30:08;;;;;;;13.10;6.78;;;15.40;99.90;;;;;;5022609;28;20030;-70
2022/06/08 07:32:34;;;;;;;15.63;8.20;;;15.60;99.90;;;;;;5020887;28;20045;-70
2022/06/08 07:35:02;;;;;;;18.70;7.50;;;15.70;99.90;;;;;;5019773;28;20057;-71
2022/06/08 07:37:28;;;;;;;16.27;7.53;;;15.80;99.90;;;;;;5020705;28;20112;-70
2022/06/08 07:39:54;;;;;;;13.55;7.65;;;16.00;99.90;;;;;;5021433;28;20064;-71
2022/06/08 07:42:20;;;;;;;16.50;7.30;;;16.10;99.90;;;;;;5025632;28;20038;-71
2022/06/08 07:44:51;;;;;;;18.52;7.22;;;16.20;99.90;;;;;;5026484;28;20041;-69
2022/06/08 07:47:16;;;;;;;11.88;6.90;;;16.20;99.90;;;;;;5024780;28;20041;-71
2022/06/08 07:49:49;;;;;;;13.50;6.03;;;16.30;99.90;;;;;;5025715;28;20045;-71
2022/06/08 07:53:03;;;;;;;20.55;8.02;;;16.20;99.90;;;;;;5005950;28;20174;-70
2022/06/08 07:55:29;;;;;;;15.68;6.78;;;16.30;99.90;;;;;;4945044;29;20056;-69
2022/06/08 07:57:54;;;;;;;20.27;7.72;;;16.40;99.90;;;;;;5007316;28;20034;-68
2022/06/08 08:00:21;;;;;;;30.25;8.27;;;16.40;99.90;;;;;;5023742;28;20022;-69
2022/06/08 08:02:47;;;;;;;13.73;7.20;;;16.60;99.90;;;;;;5025952;28;20059;-69
2022/06/08 08:05:14;;;;;;;14.40;6.82;;;16.60;99.90;;;;;;5025946;28;20102;-69
2022/06/08 08:07:41;;;;;;;12.60;6.80;;;16.70;99.90;;;;;;5025684;28;20026;-70
2022/06/08 08:10:16;;;;;;;11.18;7.30;;;16.90;99.90;;;;;;5025892;28;20038;-69
2022/06/08 08:12:48;;;;;;;12.68;7.53;;;17.10;99.90;;;;;;5024027;28;20033;-69
2022/06/08 08:15:16;;;;;;;12.23;6.03;;;17.40;99.90;;;;;;5024695;28;20026;-69
2022/06/08 08:17:43;;;;;;;14.43;7.45;;;17.50;99.90;;;;;;5024844;28;20042;-71
2022/06/08 08:20:13;;;;;;;11.40;7.00;;;17.60;99.90;;;;;;5022702;28;20026;-71
2022/06/08 08:22:38;;;;;;;13.40;7.20;;;17.80;99.90;;;;;;5024881;28;20025;-71
2022/06/08 08:25:04;;;;;;;12.00;6.85;;;17.90;99.90;;;;;;5025062;28;20041;-72
2022/06/08 08:27:30;;;;;;;12.98;6.88;;;17.90;99.90;;;;;;5024353;28;20034;-69
2022/06/08 08:29:55;;;;;;;16.60;6.63;;;17.90;99.90;;;;;;5024952;28;20101;-69
2022/06/08 08:32:21;;;;;;;11.27;6.53;;;18.00;99.90;;;;;;5023834;28;20492;-71
2022/06/08 08:34:46;;;;;;;19.08;7.28;;;18.10;99.90;;;;;;5024492;28;20022;-72
2022/06/08 08:37:12;;;;;;;14.98;7.00;;;18.10;99.90;;;;;;5024805;28;20060;-70
2022/06/08 08:39:38;;;;;;;16.45;7.40;;;18.10;99.90;;;;;;5023959;28;20045;-70
2022/06/08 08:42:20;;;;;;;13.02;6.50;;;18.20;99.90;;;;;;5024013;28;20092;-69
2022/06/08 08:45:01;;;;;;;11.13;6.32;;;18.20;99.90;;;;;;5005917;28;20041;-69
2022/06/08 08:47:26;;;;;;;13.80;7.72;;;18.30;99.90;;;;;;5006761;28;20058;-68
2022/06/08 08:49:54;;;;;;;18.83;7.57;;;18.30;99.90;;;;;;5025098;28;20034;-70
2022/06/08 08:52:32;;;;;;;15.10;6.93;;;18.40;99.90;;;;;;5022778;28;20026;-69
2022/06/08 08:55:03;;;;;;;10.63;5.93;;;18.50;99.90;;;;;;5024566;28;20084;-69
2022/06/08 08:57:38;;;;;;;10.38;6.45;;;18.60;99.90;;;;;;5024830;28;20141;-69
2022/06/08 09:00:30;;;;;;;11.07;5.50;;;18.70;99.90;;;;;;5023712;28;20048;-69
2022/06/08 09:05:42;;;;;;;;;;;19.00;99.90;;;;;;5025308;28;20055;-70
2022/06/08 09:08:13;;;;;;;11.68;6.00;;;19.10;99.90;;;;;;5025120;28;19913;-69
2022/06/08 09:10:42;;;;;;;12.32;5.95;;;19.20;99.90;;;;;;5023807;28;20029;-70
2022/06/08 09:13:25;;;;;;;12.95;6.25;;;19.40;99.90;;;;;;5024012;28;20030;-68
2022/06/08 09:15:56;;;;;;;12.80;5.80;;;19.40;99.90;;;;;;5024455;28;20022;-68
2022/06/08 09:18:41;;;;;;;13.10;6.05;;;19.40;99.90;;;;;;5024263;28;20042;-68
2022/06/08 09:21:21;;;;;;;14.70;7.10;;;19.40;99.90;;;;;;5024477;28;20042;-72
2022/06/08 09:23:50;;;;;;;13.63;7.07;;;19.50;99.90;;;;;;5022977;28;20046;-70
2022/06/08 09:26:30;;;;;;;15.75;6.70;;;19.50;99.90;;;;;;5024259;28;20026;-70
2022/06/08 09:29:18;;;;;;;12.38;6.72;;;19.50;99.90;;;;;;5023692;28;20021;-70
2022/06/08 09:31:45;;;;;;;14.90;6.82;;;19.50;99.90;;;;;;5020904;28;20037;-71
2022/06/08 09:34:17;;;;;;;11.57;7.03;;;19.50;99.90;;;;;;5021424;28;20030;-77
2022/06/08 09:36:44;;;;;;;12.02;7.18;;;19.50;99.90;;;;;;5021233;28;20038;-70
2022/06/08 09:39:20;;;;;;;9.85;5.85;;;19.60;99.90;;;;;;5023943;28;20026;-69
2022/06/08 09:41:51;;;;;;;14.52;6.75;;;19.60;99.90;;;;;;5023496;28;20495;-69
2022/06/08 09:44:26;;;;;;;11.20;5.18;;;19.70;99.90;;;;;;5022111;28;20038;-69
2022/06/08 09:53:57;;;;;;;;;;;19.70;99.90;;;;;;5024694;28;20073;-70
2022/06/08 09:56:48;;;;;;;15.10;7.18;;;19.70;99.90;;;;;;5013006;28;19905;-71
2022/06/08 09:59:26;;;;;;;10.98;6.20;;;19.70;99.90;;;;;;5019944;28;20034;-69
2022/06/08 10:02:38;;;;;;;10.75;6.68;;;19.70;99.90;;;;;;5022251;28;20034;-70
2022/06/08 10:05:28;;;;;;;14.02;7.00;;;19.80;99.90;;;;;;5022986;28;20033;-69
2022/06/08 10:08:00;;;;;;;16.17;7.78;;;20.00;99.90;;;;;;5023389;28;20026;-73
2022/06/08 10:10:31;;;;;;;15.70;5.53;;;20.00;99.90;;;;;;5022858;28;20052;-71
2022/06/08 10:12:58;;;;;;;11.82;6.00;;;20.10;99.90;;;;;;5023331;28;20542;-72
2022/06/08 10:15:42;;;;;;;15.88;6.53;;;20.20;99.90;;;;;;5023868;28;20026;-68
2022/06/08 10:18:32;;;;;;;10.65;6.20;;;20.30;99.90;;;;;;5022508;28;20837;-69
2022/06/08 10:21:14;;;;;;;10.88;6.40;;;20.40;99.90;;;;;;5022511;28;20053;-70
2022/06/08 10:24:02;;;;;;;12.98;5.07;;;20.40;99.90;;;;;;5023301;28;20051;-70
2022/06/08 10:26:30;;;;;;;12.85;5.70;;;20.30;99.90;;;;;;5022881;28;20105;-71
2022/06/08 10:29:05;;;;;;;10.65;5.95;;;20.20;99.90;;;;;;5022549;28;20064;-70
2022/06/08 10:32:00;;;;;;;15.95;6.25;;;20.10;99.90;;;;;;5023791;28;20061;-69
2022/06/08 10:34:32;;;;;;;10.43;5.72;;;20.10;99.90;;;;;;5022637;28;20512;-69
2022/06/08 10:37:16;;;;;;;11.90;6.03;;;20.00;99.90;;;;;;5023091;28;20028;-71
2022/06/08 10:39:47;;;;;;;11.70;5.97;;;19.90;99.90;;;;;;5022896;28;20470;-71
2022/06/08 10:42:39;;;;;;;11.88;5.03;;;19.90;99.90;;;;;;5019199;28;20414;-69
2022/06/08 10:45:51;;;;;;;11.55;6.70;;;20.20;99.90;;;;;;5019791;28;20096;-68
2022/06/08 10:48:25;;;;;;;11.35;6.15;;;20.60;99.90;;;;;;4975148;28;20036;-72
2022/06/08 10:51:10;;;;;;;9.70;5.05;;;20.90;99.90;;;;;;5004073;28;20026;-69
2022/06/08 10:56:48;;;;;;;7.75;4.85;;;21.40;99.90;;;;;;5022143;28;20065;-72
2022/06/08 10:59:24;;;;;;;8.05;4.68;;;21.70;99.90;;;;;;5023009;28;20081;-72
2022/06/08 11:01:59;;;;;;;8.73;4.78;;;21.90;99.90;;;;;;5021332;28;20061;-69
2022/06/08 11:04:27;;;;;;;;;;;22.00;99.90;;;;;;5022175;28;20069;-70
2022/06/08 11:06:55;;;;;;;8.90;4.68;;;22.00;99.90;;;;;;5020919;28;19913;-70
2022/06/08 11:09:33;;;;;;;10.93;4.50;;;21.80;99.90;;;;;;5022431;28;20045;-71
2022/06/08 11:12:11;;;;;;;7.75;4.07;;;21.90;99.90;;;;;;5022592;28;20025;-69
2022/06/08 11:14:43;;;;;;;7.75;3.88;;;22.10;99.90;;;;;;5021565;28;20077;-70
2022/06/08 11:17:17;;;;;;;6.75;3.10;;;22.00;99.90;;;;;;5022271;28;20057;-68
2022/06/08 11:19:44;;;;;;;;;;;21.90;99.90;;;;;;5005179;28;20552;-72
2022/06/08 11:22:15;;;;;;;4.43;2.75;;;21.90;99.90;;;;;;5022261;28;19909;-68
2022/06/08 11:24:54;;;;;;;4.32;2.75;;;22.00;99.90;;;;;;5022660;28;20025;-68
2022/06/08 11:27:36;;;;;;;6.18;2.50;;;21.90;99.90;;;;;;5022533;28;20022;-69
2022/06/08 11:30:14;;;;;;;5.55;3.03;;;21.90;99.90;;;;;;5022606;28;20022;-67
2022/06/08 11:33:18;;;;;;;5.65;2.58;;;21.90;99.90;;;;;;5021407;28;20033;-70
2022/06/08 11:36:00;;;;;;;6.90;3.03;;;21.90;99.90;;;;;;5022093;28;20113;-69
2022/06/08 11:38:44;;;;;;;4.63;2.30;;;22.10;99.90;;;;;;5021977;28;20032;-70
2022/06/08 11:41:31;;;;;;;5.22;2.17;;;22.20;99.90;;;;;;5022661;28;20022;-69
2022/06/08 11:44:12;;;;;;;3.78;2.40;;;22.30;99.90;;;;;;5021049;28;20054;-68
2022/06/08 11:46:43;;;;;;;2.35;1.73;;;22.30;99.90;;;;;;5022652;28;20478;-70
2022/06/08 11:49:37;;;;;;;3.22;1.95;;;22.10;99.90;;;;;;5022133;28;20034;-68
2022/06/08 11:52:26;;;;;;;5.07;3.13;;;22.00;99.90;;;;;;5022006;28;20041;-69
2022/06/08 11:55:00;;;;;;;6.38;3.75;;;21.90;99.90;;;;;;5021052;28;20025;-69
2022/06/08 11:57:26;;;;;;;5.55;2.72;;;21.80;99.90;;;;;;5022004;28;20018;-68
2022/06/08 11:59:53;;;;;;;6.18;2.00;;;21.80;99.90;;;;;;5022547;28;20052;-70
2022/06/08 12:02:37;;;;;;;3.45;2.15;;;21.90;99.90;;;;;;5021879;28;20102;-70
2022/06/08 12:05:07;;;;;;;4.25;2.60;;;22.10;99.90;;;;;;5022016;28;20100;-69
2022/06/08 12:07:45;;;;;;;10.50;3.65;;;22.20;99.90;;;;;;5022026;28;20109;-69
2022/06/08 12:10:17;;;;;;;5.20;2.95;;;22.40;99.90;;;;;;5022327;28;20022;-69
2022/06/08 12:12:46;;;;;;;6.90;3.55;;;22.70;99.90;;;;;;5021953;28;20026;-69
2022/06/08 12:15:25;;;;;;;6.45;3.63;;;22.70;99.90;;;;;;5020935;28;20076;-70
2022/06/08 12:17:51;;;;;;;7.22;3.53;;;22.70;99.90;;;;;;5021874;28;20106;-69
2022/06/08 12:20:40;;;;;;;4.90;3.28;;;22.70;99.90;;;;;;5022364;28;20022;-69
2022/06/08 12:23:06;;;;;;;6.38;2.80;;;22.50;99.90;;;;;;5021961;28;20079;-67
2022/06/08 12:25:32;;;;;;;2.90;1.80;;;22.40;99.90;;;;;;5022086;28;20026;-68
2022/06/08 12:28:00;;;;;;;7.43;3.00;;;22.20;99.90;;;;;;5023588;28;20041;-69
2022/06/08 12:30:27;;;;;;;5.88;3.30;;;22.00;99.90;;;;;;5024990;28;20032;-67
2022/06/08 12:33:16;;;;;;;7.80;3.50;;;21.80;99.90;;;;;;5023846;28;20022;-69
2022/06/08 12:35:57;;;;;;;8.15;4.38;;;21.70;99.90;;;;;;5022967;28;20093;-69
2022/06/08 12:38:27;;;;;;;7.95;4.15;;;21.50;99.90;;;;;;5025198;28;20033;-71
2022/06/08 12:41:07;;;;;;;10.73;4.78;;;21.40;99.90;;;;;;5024381;28;20032;-70
2022/06/08 12:43:49;;;;;;;5.88;3.67;;;21.30;99.90;;;;;;5023747;28;20040;-69
2022/06/08 12:46:22;;;;;;;9.35;4.88;;;21.20;99.90;;;;;;5024465;28;20032;-69
2022/06/08 12:48:53;;;;;;;7.45;3.97;;;21.10;99.90;;;;;;5023901;28;20026;-70
2022/06/08 12:51:43;;;;;;;10.98;4.25;;;21.10;99.90;;;;;;5025220;28;20030;-69
2022/06/08 12:54:20;;;;;;;8.50;4.78;;;21.20;99.90;;;;;;5025533;28;20411;-68
2022/06/08 12:56:49;;;;;;;7.47;4.45;;;21.50;99.90;;;;;;5025138;28;20032;-69
2022/06/08 12:59:15;;;;;;;10.10;4.30;;;22.00;99.90;;;;;;5024324;28;20022;-69
2022/06/08 13:01:44;;;;;;;6.75;3.78;;;22.40;99.90;;;;;;5025433;28;20030;-69
2022/06/08 13:04:13;;;;;;;7.55;4.53;;;22.50;99.90;;;;;;5024991;28;20034;-71
2022/06/08 13:06:40;;;;;;;8.70;4.40;;;22.50;99.90;;;;;;5024740;28;20034;-69
2022/06/08 13:09:09;;;;;;;8.07;3.88;;;22.50;99.90;;;;;;5024960;28;20033;-69
2022/06/08 13:11:35;;;;;;;6.93;3.72;;;22.60;99.90;;;;;;5021715;28;20040;-66
2022/06/08 13:14:01;;;;;;;6.60;3.00;;;22.80;99.90;;;;;;5024634;28;21422;-69
2022/06/08 13:16:30;;;;;;;5.80;3.25;;;23.10;99.90;;;;;;5021844;28;20057;-68
2022/06/08 13:18:56;;;;;;;6.97;3.85;;;23.20;99.90;;;;;;5023334;28;20071;-69
2022/06/08 13:21:29;;;;;;;6.40;3.10;;;23.40;99.90;;;;;;5021821;28;20026;-70
2022/06/08 13:23:55;;;;;;;7.22;3.45;;;23.50;99.90;;;;;;5019151;28;20030;-69
2022/06/08 13:26:26;;;;;;;7.88;2.38;;;23.30;99.90;;;;;;5023972;28;20372;-68